Killeen, TX (76547)

1:43 PM CST on December 18, 2014 (GMT -0600)
Fort Hood Patton Park | Change Station
CLOSE
Current Station
Personal Weather Station
Location: Fort Hood, TX
Elevation: 879 ft
Nearby Weather Stations

Elev 879 ft 31.12 °N, 97.74 °W | Updated 11 minutes ago

Haze
Haze
60.6 °F
Feels Like 60.6 °F
N
0.0
Wind Variable Wind from WSW

Today
High -- | Low -- °F
--% Chance of Precip.
Yesterday
High -- | Low -- °F
Precip. -- in
7:23 AM 5:31 PM
Waning Crescent, 12% visible
Pressure 30.06 in
Visibility 6.0 miles
Clouds Mostly Cloudy 1000 ft
Mostly Cloudy 1400 ft
Dew Point 54 °F
Humidity 80%
Rainfall 0.00 in
Snow Depth Not available.
UV 2 out of 12
Pollen 8.20 out of 12
Air Quality Not available.
Flu Activity Not available.
SPECI KHLR 181938Z AUTO 21001KT 6SM HZ BKN010 BKN014 14/11 A3006 RMK AO2

More Conditions Fewer Conditions

Pressure 30.06 in
Visibility 6.0 miles
Clouds Mostly Cloudy 1000 ft
Mostly Cloudy 1400 ft
Dew Point 54 °F
Humidity 80%
Rainfall 0.00 in
Snow Depth Not available.
UV 2 out of 12
Pollen 8.20 out of 12
Air Quality Not available.
Flu Activity Not available.
SPECI KHLR 181938Z AUTO 21001KT 6SM HZ BKN010 BKN014 14/11 A3006 RMK AO2

More Conditions Fewer Conditions

Nowcast | as of 12:03 PM CST on December 18, 2014

Partial clearing will continue generally west of a Graham to Stephenville to Lampasas line through the afternoon. The mostly sunny skies should allow temperatures to warm into the upper 50s and low 60s. Elsewhere...skies will remain mostly cloudy with areas of drizzle and patchy fog. The areas of fog and drizzle may reduce visibilities down to 1 to 2 miles. Temperatures this afternoon across cloudy areas will remain cool with readings in the mid 40s to low 50s.

×

10-Day Weather Forecast

Almanac

Astronomy

Dec. 18, 2014 Rise Set
Actual Time
Civil Twilight
Nautical Twilight
Astronomical Twilight
Moon
Length of Visible Light
Length of Day
Tomorrow will be .
, % of the Moon is Illuminated

Today's Extremes

State Highs State Lows

Community

WunderPhotos

Upload Photos

1,778,985 photos uploaded!

WunderBlogs® & News

Nearby

Air Quality

  Air Quality AQ Index Pollutant
Not available.

Snow Depth

Station Depth Elevation

Earthquake Activity

City Distance Mag. Time & Date
Minimum magnitude displayed is 2.5.

Coastal Water Temperatures

Place Temperature

Nearby Weather Stations